createdAt,value
2022-11-18T00:01:47.320Z,8.92
2022-11-18T00:04:15.163Z,8.90
2022-11-18T00:06:42.929Z,8.96
2022-11-18T00:09:10.645Z,9.01
2022-11-18T00:11:56.862Z,8.95
2022-11-18T00:14:27.496Z,8.95
2022-11-18T00:16:56.874Z,8.79
2022-11-18T00:19:27.319Z,8.77
2022-11-18T00:21:55.993Z,8.72
2022-11-18T00:24:24.158Z,8.71
2022-11-18T00:26:53.507Z,8.67
2022-11-18T00:29:21.802Z,8.64
2022-11-18T00:31:49.869Z,8.69
2022-11-18T00:34:19.182Z,8.67
2022-11-18T00:36:47.732Z,8.68
2022-11-18T00:39:17.304Z,8.71
2022-11-18T00:42:02.979Z,8.77
2022-11-18T00:44:32.172Z,8.55
2022-11-18T00:46:59.922Z,8.65
2022-11-18T00:49:27.632Z,8.54
2022-11-18T00:51:55.455Z,8.55
2022-11-18T00:54:23.502Z,8.51
2022-11-18T00:56:51.143Z,8.51
2022-11-18T00:59:19.024Z,8.41
2022-11-18T01:01:49.097Z,8.33
2022-11-18T01:04:17.105Z,8.36
2022-11-18T01:06:45.004Z,8.38
2022-11-18T01:09:12.716Z,8.37
2022-11-18T01:11:57.904Z,8.30
2022-11-18T01:14:25.875Z,8.38
2022-11-18T01:16:56.513Z,8.44
2022-11-18T01:19:24.731Z,8.37
2022-11-18T01:21:52.754Z,8.32
2022-11-18T01:24:20.405Z,8.31
2022-11-18T01:26:48.336Z,8.33
2022-11-18T01:29:17.262Z,8.47
2022-11-18T01:32:08.844Z,8.55
2022-11-18T01:34:34.233Z,8.61
2022-11-18T01:37:01.861Z,8.66
2022-11-18T01:39:29.728Z,8.58
2022-11-18T01:41:57.411Z,8.63
2022-11-18T01:45:10.275Z,8.62
2022-11-18T01:47:43.292Z,8.64
2022-11-18T01:50:14.366Z,8.64
2022-11-18T01:52:46.236Z,8.70
2022-11-18T01:55:20.366Z,8.70
2022-11-18T01:57:50.998Z,8.75
2022-11-18T02:00:18.916Z,8.80
2022-11-18T02:02:47.161Z,8.79
2022-11-18T02:05:17.696Z,8.90
2022-11-18T02:07:45.493Z,8.96
2022-11-18T02:10:21.195Z,9.03
2022-11-18T02:12:49.919Z,9.02
2022-11-18T02:15:18.608Z,9.10
2022-11-18T02:17:57.201Z,9.04
2022-11-18T02:20:38.361Z,9.04
2022-11-18T02:23:33.040Z,8.99
2022-11-18T02:26:27.361Z,8.93
2022-11-18T02:29:04.058Z,8.86
2022-11-18T02:31:36.419Z,8.86
2022-11-18T02:34:14.487Z,8.85
2022-11-18T02:36:47.975Z,8.87
2022-11-18T02:39:22.843Z,8.83
2022-11-18T02:41:55.199Z,8.84
2022-11-18T02:44:27.366Z,8.87
2022-11-18T02:46:59.333Z,8.90
2022-11-18T02:49:39.909Z,8.95
2022-11-18T02:52:11.322Z,8.95
2022-11-18T02:54:42.702Z,9.01
2022-11-18T02:57:10.951Z,9.05
2022-11-18T02:59:40.446Z,9.05
2022-11-18T03:02:08.110Z,9.14
2022-11-18T03:04:36.642Z,9.15
2022-11-18T03:07:12.232Z,9.14
2022-11-18T03:09:43.470Z,9.11
2022-11-18T03:12:17.266Z,9.20
2022-11-18T03:14:56.308Z,9.19
2022-11-18T03:17:32.439Z,9.25
2022-11-18T03:20:11.679Z,9.12
2022-11-18T03:22:45.718Z,9.08
2022-11-18T03:25:21.096Z,8.92
2022-11-18T03:27:55.134Z,9.11
2022-11-18T03:30:26.178Z,9.09
2022-11-18T03:32:59.468Z,9.05
2022-11-18T03:35:30.342Z,9.30
2022-11-18T03:38:09.478Z,9.30
2022-11-18T03:40:40.496Z,9.54
2022-11-18T03:43:14.186Z,9.45
2022-11-18T03:45:48.552Z,9.45
2022-11-18T03:48:18.339Z,9.31
2022-11-18T03:50:50.119Z,9.26
2022-11-18T03:53:20.620Z,9.31
2022-11-18T03:55:52.284Z,9.24
2022-11-18T03:58:25.300Z,9.34
2022-11-18T04:01:02.695Z,9.25
2022-11-18T04:03:30.343Z,9.23
2022-11-18T04:06:05.189Z,9.30
2022-11-18T04:08:39.181Z,9.19
2022-11-18T04:11:33.990Z,9.21
2022-11-18T04:14:03.686Z,9.12
2022-11-18T04:16:39.042Z,9.02
2022-11-18T04:19:06.750Z,8.95
2022-11-18T04:21:34.366Z,8.98
2022-11-18T04:24:02.314Z,8.91
2022-11-18T04:26:31.443Z,8.86
2022-11-18T04:28:59.100Z,8.70
2022-11-18T04:31:26.691Z,8.70
2022-11-18T04:33:55.673Z,8.67
2022-11-18T04:36:23.390Z,8.62
2022-11-18T04:38:50.996Z,8.60
2022-11-18T04:41:18.589Z,8.49
2022-11-18T04:43:46.203Z,8.55
2022-11-18T04:46:13.851Z,8.51
2022-11-18T04:48:41.545Z,8.49
2022-11-18T04:51:10.582Z,8.45
2022-11-18T04:53:38.224Z,8.40
2022-11-18T04:56:08.819Z,8.35
2022-11-18T04:58:36.632Z,8.36
2022-11-18T05:01:04.328Z,8.34
2022-11-18T05:03:32.014Z,8.30
2022-11-18T05:06:02.704Z,8.25
2022-11-18T05:08:32.605Z,8.18
2022-11-18T05:11:20.635Z,8.09
2022-11-18T05:13:47.227Z,8.11
2022-11-18T05:16:14.886Z,8.05
2022-11-18T05:18:42.614Z,8.05
2022-11-18T05:21:10.359Z,8.03
2022-11-18T05:23:39.299Z,8.02
2022-11-18T05:26:08.071Z,7.94
2022-11-18T05:28:37.086Z,7.90
2022-11-18T05:31:08.390Z,7.88
2022-11-18T05:33:35.995Z,7.89
2022-11-18T05:36:05.002Z,7.90
2022-11-18T05:38:33.377Z,7.82
2022-11-18T05:41:03.136Z,7.82
2022-11-18T05:43:30.343Z,7.81
2022-11-18T05:45:58.677Z,7.84
2022-11-18T05:48:26.533Z,7.85
2022-11-18T05:50:55.340Z,7.79
2022-11-18T05:53:25.313Z,7.82
2022-11-18T05:55:57.989Z,7.81
2022-11-18T05:58:27.225Z,7.76
2022-11-18T06:00:57.716Z,7.73
2022-11-18T06:03:30.899Z,7.72
2022-11-18T06:06:02.647Z,7.64
2022-11-18T06:08:35.284Z,7.72
2022-11-18T06:11:03.279Z,7.75
2022-11-18T06:13:37.903Z,7.78
2022-11-18T06:16:06.056Z,7.66
2022-11-18T06:18:35.888Z,7.66
2022-11-18T06:21:06.533Z,7.71
2022-11-18T06:23:38.014Z,7.84
2022-11-18T06:26:06.224Z,7.71
2022-11-18T06:28:35.394Z,7.66
2022-11-18T06:31:03.067Z,7.75
2022-11-18T06:33:30.775Z,7.63
2022-11-18T06:35:58.376Z,7.71
2022-11-18T06:38:26.369Z,7.64
2022-11-18T06:40:54.078Z,7.72
2022-11-18T06:43:41.561Z,7.66
2022-11-18T06:46:30.409Z,7.68
2022-11-18T06:48:58.082Z,7.68
2022-11-18T06:51:26.500Z,7.61
2022-11-18T06:53:54.157Z,7.71
2022-11-18T06:56:23.381Z,7.69
2022-11-18T06:58:54.195Z,7.73
2022-11-18T07:01:25.025Z,7.76
2022-11-18T07:03:53.428Z,7.71
2022-11-18T07:06:23.279Z,7.71
2022-11-18T07:08:51.516Z,7.78
2022-11-18T07:11:21.169Z,7.82
2022-11-18T07:13:49.302Z,7.77
2022-11-18T07:16:19.038Z,7.80
2022-11-18T07:18:49.484Z,7.87
2022-11-18T07:21:19.074Z,8.03
2022-11-18T07:23:47.038Z,7.93
2022-11-18T07:26:15.527Z,7.90
2022-11-18T07:28:43.700Z,7.81
2022-11-18T07:31:13.183Z,7.90
2022-11-18T07:33:42.470Z,7.83
2022-11-18T07:36:13.988Z,7.92
2022-11-18T07:38:42.181Z,7.97
2022-11-18T07:41:11.999Z,8.03
2022-11-18T07:43:40.141Z,7.87
2022-11-18T07:46:16.641Z,8.09
2022-11-18T07:48:45.728Z,8.05
2022-11-18T07:51:15.676Z,8.01
2022-11-18T07:53:44.340Z,8.27
2022-11-18T07:56:13.726Z,8.22
2022-11-18T07:58:42.071Z,8.19
2022-11-18T08:01:11.667Z,8.33
2022-11-18T08:03:40.440Z,8.47
2022-11-18T08:06:09.841Z,8.32
2022-11-18T08:08:39.148Z,8.47
2022-11-18T08:11:09.144Z,8.50
2022-11-18T08:13:37.239Z,8.37
2022-11-18T08:16:06.124Z,8.45
2022-11-18T08:18:34.005Z,8.47
2022-11-18T08:21:04.772Z,8.79
2022-11-18T08:23:37.430Z,9.02
2022-11-18T08:26:11.368Z,9.12
2022-11-18T08:28:39.470Z,8.82
2022-11-18T08:31:11.779Z,8.90
2022-11-18T08:33:39.575Z,8.70
2022-11-18T08:36:08.861Z,8.77
2022-11-18T08:38:36.820Z,8.74
2022-11-18T08:41:07.193Z,8.81
2022-11-18T08:43:37.988Z,8.79
2022-11-18T08:46:05.903Z,8.76
2022-11-18T08:48:33.569Z,8.80
2022-11-18T08:51:02.111Z,9.08
2022-11-18T08:53:29.931Z,8.95
2022-11-18T08:55:58.582Z,8.98
2022-11-18T08:58:26.643Z,8.90
2022-11-18T09:00:56.333Z,8.94
2022-11-18T09:03:24.372Z,9.04
2022-11-18T09:05:52.034Z,9.33
2022-11-18T09:08:19.958Z,9.24
2022-11-18T09:10:47.666Z,9.24
2022-11-18T09:16:05.899Z,9.52
2022-11-18T09:18:34.267Z,9.49
2022-11-18T09:21:04.022Z,9.52
2022-11-18T09:23:32.632Z,9.59
2022-11-18T09:26:00.571Z,9.37
2022-11-18T09:28:28.790Z,9.24
2022-11-18T09:30:56.508Z,9.46
2022-11-18T09:33:26.173Z,9.44
2022-11-18T09:35:53.855Z,9.50
2022-11-18T09:38:21.573Z,9.64
2022-11-18T09:40:58.536Z,9.69
2022-11-18T09:43:34.720Z,9.60
2022-11-18T09:46:09.339Z,9.65
2022-11-18T09:48:56.451Z,9.68
2022-11-18T09:51:28.988Z,9.82
2022-11-18T09:53:56.662Z,9.90
2022-11-18T09:56:24.456Z,10.04
2022-11-18T09:58:52.200Z,9.95
2022-11-18T10:01:22.117Z,9.93
2022-11-18T10:03:51.749Z,9.86
2022-11-18T10:06:25.061Z,9.96
2022-11-18T10:09:06.574Z,9.96
2022-11-18T10:11:41.741Z,10.00
2022-11-18T10:14:28.267Z,10.14
2022-11-18T10:17:02.452Z,10.15
2022-11-18T10:19:35.641Z,10.14
2022-11-18T10:22:23.778Z,10.06
2022-11-18T10:24:53.562Z,10.20
2022-11-18T10:27:21.715Z,10.11
2022-11-18T10:29:54.943Z,10.21
2022-11-18T10:32:22.875Z,10.47
2022-11-18T10:34:53.847Z,10.59
2022-11-18T10:37:52.572Z,10.65
2022-11-18T10:40:26.633Z,10.71
2022-11-18T10:42:54.885Z,10.53
2022-11-18T10:45:26.858Z,10.37
2022-11-18T10:48:04.270Z,10.36
2022-11-18T10:50:35.823Z,10.41
2022-11-18T10:53:04.662Z,10.35
2022-11-18T10:55:32.390Z,10.49
2022-11-18T10:58:04.093Z,10.37
2022-11-18T11:00:42.403Z,10.45
2022-11-18T11:03:28.965Z,11.10
2022-11-18T11:06:22.675Z,11.72
2022-11-18T11:08:52.194Z,12.61
2022-11-18T11:11:28.673Z,13.08
2022-11-18T11:14:05.234Z,12.46
2022-11-18T11:16:37.271Z,12.25
2022-11-18T11:19:06.784Z,12.71
2022-11-18T11:21:35.972Z,13.00
2022-11-18T11:24:10.676Z,12.08
2022-11-18T11:29:53.063Z,11.26
2022-11-18T11:32:31.352Z,11.36
2022-11-18T11:35:08.148Z,11.13
2022-11-18T11:37:53.584Z,11.14
2022-11-18T11:40:29.318Z,12.14
2022-11-18T11:43:08.695Z,12.74
2022-11-18T11:45:44.228Z,12.59
2022-11-18T11:48:27.117Z,12.06
2022-11-18T11:51:04.356Z,12.31
2022-11-18T11:53:54.811Z,12.26
2022-11-18T11:56:31.386Z,12.31
2022-11-18T11:59:09.713Z,11.68
2022-11-18T12:01:47.322Z,11.82
2022-11-18T12:04:31.162Z,10.89
2022-11-18T12:07:00.231Z,10.93
2022-11-18T12:09:43.277Z,10.51
2022-11-18T12:12:38.378Z,10.51
2022-11-18T12:15:17.703Z,10.39
2022-11-18T12:17:54.112Z,10.31
2022-11-18T12:20:37.999Z,10.40
2022-11-18T12:23:17.467Z,10.38
2022-11-18T12:26:02.880Z,10.36
2022-11-18T12:28:33.525Z,10.39
2022-11-18T12:31:34.237Z,10.52
2022-11-18T12:34:06.515Z,11.42
2022-11-18T12:36:36.220Z,12.16
2022-11-18T12:39:47.507Z,12.38
2022-11-18T12:43:01.895Z,12.25
2022-11-18T12:45:50.678Z,12.40
2022-11-18T12:48:39.788Z,12.92
2022-11-18T12:51:40.884Z,13.29
2022-11-18T12:54:32.231Z,12.59
2022-11-18T12:57:02.603Z,12.61
2022-11-18T12:59:37.474Z,13.13
2022-11-18T13:02:21.123Z,13.45
2022-11-18T13:05:08.341Z,12.96
2022-11-18T13:08:00.118Z,13.59
2022-11-18T13:10:31.409Z,14.04
2022-11-18T13:12:59.813Z,12.80
2022-11-18T13:15:46.371Z,13.46
2022-11-18T13:18:18.357Z,12.91
2022-11-18T13:20:57.547Z,13.13
2022-11-18T13:23:47.088Z,13.40
2022-11-18T13:26:20.688Z,13.10
2022-11-18T13:29:03.984Z,13.55
2022-11-18T13:31:43.243Z,13.58
2022-11-18T13:34:18.709Z,13.26
2022-11-18T13:36:47.985Z,12.76
2022-11-18T13:39:22.137Z,13.44
2022-11-18T13:42:00.740Z,12.63
2022-11-18T13:44:30.443Z,12.40
2022-11-18T13:47:05.747Z,12.84
2022-11-18T13:49:58.994Z,12.63
2022-11-18T13:52:31.912Z,13.04
2022-11-18T13:55:01.362Z,13.02
2022-11-18T13:57:31.047Z,13.52
2022-11-18T14:00:03.810Z,12.40
2022-11-18T14:02:33.014Z,12.65
2022-11-18T14:05:02.990Z,12.77
2022-11-18T14:07:33.157Z,13.35
2022-11-18T14:10:02.418Z,13.82
2022-11-18T14:12:32.482Z,13.13
2022-11-18T14:15:20.416Z,12.62
2022-11-18T14:17:55.801Z,12.57
2022-11-18T14:20:24.848Z,12.15
2022-11-18T14:22:56.931Z,11.73
2022-11-18T14:25:29.111Z,11.47
2022-11-18T14:27:57.932Z,11.60
2022-11-18T14:30:34.592Z,11.25
2022-11-18T14:33:24.742Z,11.33
2022-11-18T14:35:56.273Z,11.30
2022-11-18T14:38:47.600Z,11.16
2022-11-18T14:41:44.398Z,11.02
2022-11-18T14:44:14.285Z,11.01
2022-11-18T14:46:44.406Z,10.92
2022-11-18T14:49:17.271Z,10.98
2022-11-18T14:51:45.243Z,10.87
2022-11-18T14:54:15.621Z,10.89
2022-11-18T14:56:45.889Z,10.68
2022-11-18T14:59:14.303Z,10.78
2022-11-18T15:01:42.694Z,10.67
2022-11-18T15:04:10.887Z,10.82
2022-11-18T15:06:40.479Z,10.73
2022-11-18T15:09:08.840Z,10.83
2022-11-18T15:11:36.779Z,10.81
2022-11-18T15:14:05.083Z,10.62
2022-11-18T15:16:34.484Z,10.62
2022-11-18T15:19:04.306Z,10.63
2022-11-18T15:21:32.387Z,10.70
2022-11-18T15:24:01.729Z,10.54
2022-11-18T15:26:33.459Z,10.41
2022-11-18T15:29:01.374Z,10.31
2022-11-18T15:31:29.113Z,10.33
2022-11-18T15:33:59.791Z,10.23
2022-11-18T15:36:29.853Z,10.13
2022-11-18T15:38:57.474Z,10.13
2022-11-18T15:41:28.350Z,10.10
2022-11-18T15:43:57.468Z,10.05
2022-11-18T15:46:27.547Z,9.97
2022-11-18T15:48:57.016Z,9.98
2022-11-18T15:51:26.086Z,9.95
2022-11-18T15:53:54.277Z,10.06
2022-11-18T15:56:29.124Z,9.90
2022-11-18T15:58:58.263Z,9.95
2022-11-18T16:01:27.458Z,10.08
2022-11-18T16:03:55.161Z,10.20
2022-11-18T16:06:23.374Z,10.08
2022-11-18T16:08:55.876Z,10.15
2022-11-18T16:11:46.510Z,10.32
2022-11-18T16:14:15.093Z,10.05
2022-11-18T16:16:44.856Z,9.76
2022-11-18T16:19:14.761Z,9.83
2022-11-18T16:21:44.439Z,10.03
2022-11-18T16:24:14.884Z,10.07
2022-11-18T16:26:43.857Z,10.14
2022-11-18T16:29:12.221Z,10.17
2022-11-18T16:31:43.476Z,10.19
2022-11-18T16:34:12.709Z,9.82
2022-11-18T16:36:42.524Z,9.75
2022-11-18T16:39:12.406Z,9.74
2022-11-18T16:41:41.435Z,9.70
2022-11-18T16:44:12.086Z,9.63
2022-11-18T16:46:41.417Z,9.55
2022-11-18T16:49:14.001Z,9.52
2022-11-18T16:51:43.143Z,9.54
2022-11-18T16:54:17.282Z,9.53
2022-11-18T16:56:45.482Z,9.46
2022-11-18T16:59:16.665Z,9.42
2022-11-18T17:01:45.149Z,9.55
2022-11-18T17:04:12.841Z,9.50
2022-11-18T17:06:41.452Z,9.45
2022-11-18T17:09:13.443Z,9.73
2022-11-18T17:11:41.351Z,9.52
2022-11-18T17:14:09.182Z,9.50
2022-11-18T17:16:38.164Z,9.41
2022-11-18T17:19:10.348Z,9.19
2022-11-18T17:21:39.446Z,9.04
2022-11-18T17:24:08.169Z,9.12
2022-11-18T17:26:36.220Z,9.08
2022-11-18T17:29:04.723Z,9.08
2022-11-18T17:31:32.552Z,8.89
2022-11-18T17:34:01.825Z,9.08
2022-11-18T17:36:29.850Z,8.98
2022-11-18T17:39:00.476Z,9.03
2022-11-18T17:41:47.770Z,9.00
2022-11-18T17:44:17.837Z,8.75
2022-11-18T17:46:47.101Z,8.92
2022-11-18T17:49:18.769Z,8.84
2022-11-18T17:51:46.991Z,8.85
2022-11-18T17:54:15.263Z,9.01
2022-11-18T17:56:43.212Z,8.90
2022-11-18T17:59:10.928Z,9.00
2022-11-18T18:01:38.627Z,9.01
2022-11-18T18:04:06.399Z,9.10
2022-11-18T18:06:35.422Z,9.00
2022-11-18T18:09:03.580Z,9.05
2022-11-18T18:11:31.201Z,8.98
2022-11-18T18:14:13.150Z,8.95
2022-11-18T18:16:43.304Z,8.98
2022-11-18T18:19:12.936Z,8.90
2022-11-18T18:21:42.324Z,8.83
2022-11-18T18:24:11.001Z,8.89
2022-11-18T18:26:39.407Z,8.94
2022-11-18T18:29:09.210Z,8.83
2022-11-18T18:31:38.236Z,8.91
2022-11-18T18:34:06.155Z,8.80
2022-11-18T18:36:33.828Z,8.77
2022-11-18T18:39:02.924Z,8.79
2022-11-18T18:41:32.270Z,8.80
2022-11-18T18:44:00.119Z,8.75
2022-11-18T18:46:32.063Z,8.74
2022-11-18T18:49:03.321Z,8.75
2022-11-18T18:51:34.381Z,8.74
2022-11-18T18:54:03.980Z,8.72
2022-11-18T18:56:31.792Z,8.81
2022-11-18T18:59:00.240Z,8.85
2022-11-18T19:01:28.575Z,8.87
2022-11-18T19:03:57.697Z,8.88
2022-11-18T19:06:50.554Z,8.78
2022-11-18T19:09:16.981Z,8.85
2022-11-18T19:12:03.347Z,8.92
2022-11-18T19:14:31.540Z,8.87
2022-11-18T19:17:02.478Z,8.89
2022-11-18T19:19:51.854Z,9.15
2022-11-18T19:22:20.152Z,8.95
2022-11-18T19:24:50.774Z,9.06
2022-11-18T19:27:19.684Z,8.73
2022-11-18T19:29:48.095Z,8.90
2022-11-18T19:32:16.340Z,8.87
2022-11-18T19:34:44.371Z,8.84
2022-11-18T19:37:12.490Z,8.87
2022-11-18T19:39:40.362Z,8.84
2022-11-18T19:42:10.906Z,8.77
2022-11-18T19:44:39.247Z,8.83
2022-11-18T19:47:07.273Z,8.69
2022-11-18T19:49:35.147Z,8.79
2022-11-18T19:52:03.351Z,8.76
2022-11-18T19:54:31.310Z,8.74
2022-11-18T19:56:59.746Z,8.73
2022-11-18T19:59:28.865Z,8.70
2022-11-18T20:01:56.869Z,8.70
2022-11-18T20:04:25.039Z,8.81
2022-11-18T20:06:52.906Z,8.84
2022-11-18T20:09:21.026Z,8.82
2022-11-18T20:11:49.643Z,8.76
2022-11-18T20:14:17.439Z,8.77
2022-11-18T20:16:46.808Z,8.74
2022-11-18T20:19:17.084Z,8.73
2022-11-18T20:21:44.844Z,8.71
2022-11-18T20:24:16.811Z,8.72
2022-11-18T20:26:45.509Z,8.78
2022-11-18T20:29:13.463Z,8.69
2022-11-18T20:31:41.701Z,8.83
2022-11-18T20:34:14.236Z,8.65
2022-11-18T20:36:42.270Z,8.78
2022-11-18T20:39:14.439Z,8.92
2022-11-18T20:41:42.175Z,8.86
2022-11-18T20:44:09.792Z,8.71
2022-11-18T20:46:37.498Z,8.87
2022-11-18T20:49:05.220Z,8.80
2022-11-18T20:51:34.516Z,8.81
2022-11-18T20:54:07.576Z,8.76
2022-11-18T20:56:35.271Z,8.86
2022-11-18T20:59:02.980Z,9.04
2022-11-18T21:01:33.022Z,8.98
2022-11-18T21:04:03.305Z,8.92
2022-11-18T21:06:32.697Z,8.71
2022-11-18T21:09:03.204Z,8.95
2022-11-18T21:11:31.707Z,9.16
2022-11-18T21:14:22.997Z,8.68
2022-11-18T21:16:52.530Z,9.05
2022-11-18T21:19:20.631Z,8.82
2022-11-18T21:21:51.866Z,8.82
2022-11-18T21:24:22.866Z,8.80
2022-11-18T21:26:54.288Z,9.26
2022-11-18T21:29:22.688Z,9.42
2022-11-18T21:31:50.415Z,9.21
2022-11-18T21:34:19.097Z,9.55
2022-11-18T21:36:51.718Z,9.50
2022-11-18T21:39:23.947Z,9.50
2022-11-18T21:41:55.697Z,9.33
2022-11-18T21:44:24.220Z,9.05
2022-11-18T21:46:51.795Z,9.05
2022-11-18T21:49:19.664Z,9.00
2022-11-18T21:51:47.364Z,9.05
2022-11-18T21:54:18.022Z,8.97
2022-11-18T21:56:47.030Z,8.79
2022-11-18T21:59:14.698Z,8.79
2022-11-18T22:01:42.333Z,8.71
2022-11-18T22:04:30.011Z,8.80
2022-11-18T22:06:57.632Z,8.67
2022-11-18T22:09:25.224Z,8.59
2022-11-18T22:11:54.525Z,8.68
2022-11-18T22:14:22.165Z,8.77
2022-11-18T22:16:51.300Z,8.73
2022-11-18T22:19:19.010Z,8.60
2022-11-18T22:21:47.119Z,8.54
2022-11-18T22:24:14.704Z,8.68
2022-11-18T22:26:42.272Z,8.73
2022-11-18T22:29:11.214Z,8.65
2022-11-18T22:31:39.098Z,8.81
2022-11-18T22:34:06.726Z,8.72
2022-11-18T22:36:34.369Z,8.92
2022-11-18T22:39:02.282Z,8.81
2022-11-18T22:41:48.197Z,8.71
2022-11-18T22:44:17.888Z,8.73
2022-11-18T22:46:46.761Z,8.88
2022-11-18T22:49:14.702Z,8.51
2022-11-18T22:51:42.475Z,8.70
2022-11-18T22:54:37.033Z,8.72
2022-11-18T22:56:58.242Z,8.58
2022-11-18T22:59:27.176Z,8.53
2022-11-18T23:01:55.047Z,8.54
2022-11-18T23:04:22.686Z,8.46
2022-11-18T23:06:50.616Z,8.41
2022-11-18T23:09:18.577Z,8.42
2022-11-18T23:12:04.285Z,8.33
2022-11-18T23:14:33.314Z,8.31
2022-11-18T23:17:01.419Z,8.31
2022-11-18T23:19:29.117Z,8.25
2022-11-18T23:21:57.294Z,8.23
2022-11-18T23:24:25.344Z,8.17
2022-11-18T23:26:52.956Z,8.21
2022-11-18T23:29:21.487Z,8.22
2022-11-18T23:31:50.912Z,8.25
2022-11-18T23:34:19.537Z,8.16
2022-11-18T23:36:47.654Z,8.18
2022-11-18T23:39:15.318Z,8.34
2022-11-18T23:41:42.964Z,8.26
2022-11-18T23:44:10.575Z,8.22
2022-11-18T23:46:38.363Z,8.19
2022-11-18T23:49:10.677Z,8.22
2022-11-18T23:51:38.373Z,8.30
2022-11-18T23:54:06.111Z,8.22
2022-11-18T23:56:37.729Z,8.22
2022-11-18T23:59:05.579Z,8.02
